sensor_id;sensor_type;location;lat;lon;timestamp;P1;durP1;ratioP1;P2;durP2;ratioP2
25938;SDS011;13739;51.172;4.466;2022-08-21T00:02:14;5.95;;;1.90;;
25938;SDS011;13739;51.172;4.466;2022-08-21T00:04:44;5.78;;;2.10;;
25938;SDS011;13739;51.172;4.466;2022-08-21T00:07:10;4.47;;;1.98;;
25938;SDS011;13739;51.172;4.466;2022-08-21T00:09:36;9.98;;;2.20;;
25938;SDS011;13739;51.172;4.466;2022-08-21T00:12:02;6.10;;;2.05;;
25938;SDS011;13739;51.172;4.466;2022-08-21T00:14:29;4.80;;;2.10;;
25938;SDS011;13739;51.172;4.466;2022-08-21T00:16:55;5.75;;;1.90;;
25938;SDS011;13739;51.172;4.466;2022-08-21T00:19:22;8.48;;;2.47;;
25938;SDS011;13739;51.172;4.466;2022-08-21T00:21:50;4.78;;;2.08;;
25938;SDS011;13739;51.172;4.466;2022-08-21T00:24:17;6.65;;;2.33;;
25938;SDS011;13739;51.172;4.466;2022-08-21T00:26:44;4.88;;;2.17;;
25938;SDS011;13739;51.172;4.466;2022-08-21T00:29:11;11.23;;;2.55;;
25938;SDS011;13739;51.172;4.466;2022-08-21T00:31:36;6.35;;;2.45;;
25938;SDS011;13739;51.172;4.466;2022-08-21T00:34:02;6.55;;;2.15;;
25938;SDS011;13739;51.172;4.466;2022-08-21T00:36:29;7.35;;;2.10;;
25938;SDS011;13739;51.172;4.466;2022-08-21T00:38:55;10.90;;;2.22;;
25938;SDS011;13739;51.172;4.466;2022-08-21T00:41:21;10.20;;;2.55;;
25938;SDS011;13739;51.172;4.466;2022-08-21T00:43:48;4.85;;;2.15;;
25938;SDS011;13739;51.172;4.466;2022-08-21T00:46:15;5.53;;;2.28;;
25938;SDS011;13739;51.172;4.466;2022-08-21T00:48:41;8.45;;;2.20;;
25938;SDS011;13739;51.172;4.466;2022-08-21T00:51:13;6.78;;;2.13;;
25938;SDS011;13739;51.172;4.466;2022-08-21T00:53:47;3.75;;;2.15;;
25938;SDS011;13739;51.172;4.466;2022-08-21T00:56:17;9.40;;;2.40;;
25938;SDS011;13739;51.172;4.466;2022-08-21T00:58:44;7.22;;;2.22;;
25938;SDS011;13739;51.172;4.466;2022-08-21T01:01:10;6.25;;;2.05;;
25938;SDS011;13739;51.172;4.466;2022-08-21T01:03:38;8.48;;;2.15;;
25938;SDS011;13739;51.172;4.466;2022-08-21T01:06:04;7.75;;;1.92;;
25938;SDS011;13739;51.172;4.466;2022-08-21T01:08:31;4.90;;;2.20;;
25938;SDS011;13739;51.172;4.466;2022-08-21T01:10:57;6.93;;;2.42;;
25938;SDS011;13739;51.172;4.466;2022-08-21T01:13:24;7.05;;;2.42;;
25938;SDS011;13739;51.172;4.466;2022-08-21T01:15:53;8.20;;;2.58;;
25938;SDS011;13739;51.172;4.466;2022-08-21T01:18:21;5.07;;;1.98;;
25938;SDS011;13739;51.172;4.466;2022-08-21T01:23:38;5.63;;;1.90;;
25938;SDS011;13739;51.172;4.466;2022-08-21T01:26:07;6.50;;;2.40;;
25938;SDS011;13739;51.172;4.466;2022-08-21T01:28:36;5.18;;;1.95;;
25938;SDS011;13739;51.172;4.466;2022-08-21T01:31:07;8.23;;;2.33;;
25938;SDS011;13739;51.172;4.466;2022-08-21T01:33:37;7.10;;;2.45;;
25938;SDS011;13739;51.172;4.466;2022-08-21T01:36:02;6.68;;;2.13;;
25938;SDS011;13739;51.172;4.466;2022-08-21T01:38:28;7.13;;;2.50;;
25938;SDS011;13739;51.172;4.466;2022-08-21T01:40:56;4.65;;;1.98;;
25938;SDS011;13739;51.172;4.466;2022-08-21T01:43:21;10.93;;;1.90;;
25938;SDS011;13739;51.172;4.466;2022-08-21T01:45:47;9.75;;;2.38;;
25938;SDS011;13739;51.172;4.466;2022-08-21T01:48:13;9.88;;;2.58;;
25938;SDS011;13739;51.172;4.466;2022-08-21T01:50:38;9.27;;;1.98;;
25938;SDS011;13739;51.172;4.466;2022-08-21T01:53:04;3.97;;;1.80;;
25938;SDS011;13739;51.172;4.466;2022-08-21T01:55:30;6.45;;;2.70;;
25938;SDS011;13739;51.172;4.466;2022-08-21T01:57:56;5.70;;;2.30;;
25938;SDS011;13739;51.172;4.466;2022-08-21T02:00:23;6.32;;;2.35;;
25938;SDS011;13739;51.172;4.466;2022-08-21T02:02:49;5.43;;;2.20;;
25938;SDS011;13739;51.172;4.466;2022-08-21T02:05:15;5.90;;;1.98;;
25938;SDS011;13739;51.172;4.466;2022-08-21T02:07:50;6.43;;;1.88;;
25938;SDS011;13739;51.172;4.466;2022-08-21T02:10:22;7.72;;;2.28;;
25938;SDS011;13739;51.172;4.466;2022-08-21T02:12:54;5.05;;;2.17;;
25938;SDS011;13739;51.172;4.466;2022-08-21T02:15:23;9.80;;;2.60;;
25938;SDS011;13739;51.172;4.466;2022-08-21T02:17:50;8.27;;;2.95;;
25938;SDS011;13739;51.172;4.466;2022-08-21T02:20:23;5.65;;;2.08;;
25938;SDS011;13739;51.172;4.466;2022-08-21T02:22:52;4.72;;;1.90;;
25938;SDS011;13739;51.172;4.466;2022-08-21T02:25:18;6.93;;;1.85;;
25938;SDS011;13739;51.172;4.466;2022-08-21T02:27:45;10.52;;;1.85;;
25938;SDS011;13739;51.172;4.466;2022-08-21T02:30:23;9.82;;;1.98;;
25938;SDS011;13739;51.172;4.466;2022-08-21T02:32:51;5.78;;;1.80;;
25938;SDS011;13739;51.172;4.466;2022-08-21T02:35:17;8.70;;;2.00;;
25938;SDS011;13739;51.172;4.466;2022-08-21T02:37:47;5.18;;;1.77;;
25938;SDS011;13739;51.172;4.466;2022-08-21T02:40:15;10.32;;;2.53;;
25938;SDS011;13739;51.172;4.466;2022-08-21T02:42:42;5.72;;;2.17;;
25938;SDS011;13739;51.172;4.466;2022-08-21T02:45:08;5.00;;;1.45;;
25938;SDS011;13739;51.172;4.466;2022-08-21T02:47:35;9.13;;;1.98;;
25938;SDS011;13739;51.172;4.466;2022-08-21T02:50:01;4.93;;;1.98;;
25938;SDS011;13739;51.172;4.466;2022-08-21T02:52:26;7.10;;;1.80;;
25938;SDS011;13739;51.172;4.466;2022-08-21T02:54:52;6.63;;;2.42;;
25938;SDS011;13739;51.172;4.466;2022-08-21T02:57:18;5.75;;;1.88;;
25938;SDS011;13739;51.172;4.466;2022-08-21T02:59:43;6.82;;;2.20;;
25938;SDS011;13739;51.172;4.466;2022-08-21T03:02:09;8.10;;;2.08;;
25938;SDS011;13739;51.172;4.466;2022-08-21T03:04:36;8.45;;;2.30;;
25938;SDS011;13739;51.172;4.466;2022-08-21T03:07:02;16.48;;;2.65;;
25938;SDS011;13739;51.172;4.466;2022-08-21T03:09:27;8.57;;;2.03;;
25938;SDS011;13739;51.172;4.466;2022-08-21T03:11:53;9.88;;;2.40;;
25938;SDS011;13739;51.172;4.466;2022-08-21T03:14:19;9.80;;;2.45;;
25938;SDS011;13739;51.172;4.466;2022-08-21T03:16:44;4.85;;;2.10;;
25938;SDS011;13739;51.172;4.466;2022-08-21T03:19:11;6.90;;;2.03;;
25938;SDS011;13739;51.172;4.466;2022-08-21T03:21:38;9.85;;;2.83;;
25938;SDS011;13739;51.172;4.466;2022-08-21T03:24:05;5.28;;;2.40;;
25938;SDS011;13739;51.172;4.466;2022-08-21T03:26:31;4.90;;;2.00;;
25938;SDS011;13739;51.172;4.466;2022-08-21T03:28:57;7.10;;;2.38;;
25938;SDS011;13739;51.172;4.466;2022-08-21T03:31:25;9.45;;;2.65;;
25938;SDS011;13739;51.172;4.466;2022-08-21T03:33:56;4.95;;;2.10;;
25938;SDS011;13739;51.172;4.466;2022-08-21T03:36:23;7.80;;;2.70;;
25938;SDS011;13739;51.172;4.466;2022-08-21T03:38:49;7.18;;;2.00;;
25938;SDS011;13739;51.172;4.466;2022-08-21T03:41:15;10.75;;;2.55;;
25938;SDS011;13739;51.172;4.466;2022-08-21T03:43:41;5.43;;;1.90;;
25938;SDS011;13739;51.172;4.466;2022-08-21T03:46:07;6.85;;;1.80;;
25938;SDS011;13739;51.172;4.466;2022-08-21T03:48:33;9.35;;;2.45;;
25938;SDS011;13739;51.172;4.466;2022-08-21T03:51:00;7.22;;;2.20;;
25938;SDS011;13739;51.172;4.466;2022-08-21T03:53:26;6.25;;;1.92;;
25938;SDS011;13739;51.172;4.466;2022-08-21T03:55:52;6.82;;;1.98;;
25938;SDS011;13739;51.172;4.466;2022-08-21T03:58:19;11.20;;;2.20;;
25938;SDS011;13739;51.172;4.466;2022-08-21T04:00:48;8.25;;;2.10;;
25938;SDS011;13739;51.172;4.466;2022-08-21T04:03:16;8.40;;;2.10;;
25938;SDS011;13739;51.172;4.466;2022-08-21T04:05:43;7.07;;;2.08;;
25938;SDS011;13739;51.172;4.466;2022-08-21T04:08:10;10.27;;;3.17;;
25938;SDS011;13739;51.172;4.466;2022-08-21T04:10:37;8.88;;;2.20;;
25938;SDS011;13739;51.172;4.466;2022-08-21T04:13:04;5.28;;;1.85;;
25938;SDS011;13739;51.172;4.466;2022-08-21T04:15:31;9.05;;;1.95;;
25938;SDS011;13739;51.172;4.466;2022-08-21T04:17:56;5.68;;;2.05;;
25938;SDS011;13739;51.172;4.466;2022-08-21T04:20:22;6.45;;;1.70;;
25938;SDS011;13739;51.172;4.466;2022-08-21T04:22:48;7.35;;;1.80;;
25938;SDS011;13739;51.172;4.466;2022-08-21T04:25:15;8.60;;;1.77;;
25938;SDS011;13739;51.172;4.466;2022-08-21T04:27:42;8.82;;;2.00;;
25938;SDS011;13739;51.172;4.466;2022-08-21T04:30:08;9.15;;;1.63;;
25938;SDS011;13739;51.172;4.466;2022-08-21T04:32:36;9.77;;;2.25;;
25938;SDS011;13739;51.172;4.466;2022-08-21T04:35:04;7.20;;;2.05;;
25938;SDS011;13739;51.172;4.466;2022-08-21T04:37:32;5.00;;;1.65;;
25938;SDS011;13739;51.172;4.466;2022-08-21T04:39:58;6.05;;;2.10;;
25938;SDS011;13739;51.172;4.466;2022-08-21T04:42:25;11.23;;;2.70;;
25938;SDS011;13739;51.172;4.466;2022-08-21T04:44:52;5.07;;;1.58;;
25938;SDS011;13739;51.172;4.466;2022-08-21T04:47:18;9.40;;;2.25;;
25938;SDS011;13739;51.172;4.466;2022-08-21T04:49:46;9.73;;;1.83;;
25938;SDS011;13739;51.172;4.466;2022-08-21T04:52:13;5.97;;;2.20;;
25938;SDS011;13739;51.172;4.466;2022-08-21T04:54:42;9.25;;;2.28;;
25938;SDS011;13739;51.172;4.466;2022-08-21T04:57:10;6.38;;;1.83;;
25938;SDS011;13739;51.172;4.466;2022-08-21T04:59:38;7.47;;;1.73;;
25938;SDS011;13739;51.172;4.466;2022-08-21T05:02:10;8.57;;;2.28;;
25938;SDS011;13739;51.172;4.466;2022-08-21T05:04:42;8.32;;;1.67;;
25938;SDS011;13739;51.172;4.466;2022-08-21T05:07:14;5.22;;;2.00;;
25938;SDS011;13739;51.172;4.466;2022-08-21T05:09:43;7.25;;;1.42;;
25938;SDS011;13739;51.172;4.466;2022-08-21T05:12:09;7.80;;;2.10;;
25938;SDS011;13739;51.172;4.466;2022-08-21T05:14:36;4.38;;;1.70;;
25938;SDS011;13739;51.172;4.466;2022-08-21T05:17:02;6.13;;;1.70;;
25938;SDS011;13739;51.172;4.466;2022-08-21T05:19:28;8.07;;;1.90;;
25938;SDS011;13739;51.172;4.466;2022-08-21T05:21:54;8.35;;;1.90;;
25938;SDS011;13739;51.172;4.466;2022-08-21T05:24:22;6.72;;;1.80;;
25938;SDS011;13739;51.172;4.466;2022-08-21T05:26:48;7.78;;;1.50;;
25938;SDS011;13739;51.172;4.466;2022-08-21T05:29:14;5.95;;;1.67;;
25938;SDS011;13739;51.172;4.466;2022-08-21T05:31:41;6.47;;;1.60;;
25938;SDS011;13739;51.172;4.466;2022-08-21T05:34:06;5.78;;;1.83;;
25938;SDS011;13739;51.172;4.466;2022-08-21T05:36:33;5.60;;;1.40;;
25938;SDS011;13739;51.172;4.466;2022-08-21T05:38:59;7.70;;;1.85;;
25938;SDS011;13739;51.172;4.466;2022-08-21T05:41:25;6.63;;;1.90;;
25938;SDS011;13739;51.172;4.466;2022-08-21T05:43:50;4.88;;;1.30;;
25938;SDS011;13739;51.172;4.466;2022-08-21T05:46:16;5.32;;;1.58;;
25938;SDS011;13739;51.172;4.466;2022-08-21T05:48:42;8.10;;;2.20;;
25938;SDS011;13739;51.172;4.466;2022-08-21T05:51:09;6.25;;;1.40;;
25938;SDS011;13739;51.172;4.466;2022-08-21T05:53:36;4.97;;;1.60;;
25938;SDS011;13739;51.172;4.466;2022-08-21T05:56:05;5.38;;;1.50;;
25938;SDS011;13739;51.172;4.466;2022-08-21T05:58:32;6.38;;;1.83;;
25938;SDS011;13739;51.172;4.466;2022-08-21T06:00:58;7.78;;;1.60;;
25938;SDS011;13739;51.172;4.466;2022-08-21T06:03:27;7.75;;;1.67;;
25938;SDS011;13739;51.172;4.466;2022-08-21T06:05:54;6.55;;;1.95;;
25938;SDS011;13739;51.172;4.466;2022-08-21T06:08:22;4.65;;;1.60;;
25938;SDS011;13739;51.172;4.466;2022-08-21T06:10:50;5.95;;;1.60;;
25938;SDS011;13739;51.172;4.466;2022-08-21T06:13:17;4.55;;;1.65;;
25938;SDS011;13739;51.172;4.466;2022-08-21T06:15:44;7.20;;;1.73;;
25938;SDS011;13739;51.172;4.466;2022-08-21T06:18:10;5.93;;;1.55;;
25938;SDS011;13739;51.172;4.466;2022-08-21T06:20:36;7.20;;;1.80;;
25938;SDS011;13739;51.172;4.466;2022-08-21T06:23:02;9.27;;;1.60;;
25938;SDS011;13739;51.172;4.466;2022-08-21T06:25:28;6.80;;;1.70;;
25938;SDS011;13739;51.172;4.466;2022-08-21T06:28:06;10.10;;;2.05;;
25938;SDS011;13739;51.172;4.466;2022-08-21T06:30:33;10.88;;;1.88;;
25938;SDS011;13739;51.172;4.466;2022-08-21T06:32:59;7.75;;;1.67;;
25938;SDS011;13739;51.172;4.466;2022-08-21T06:35:26;4.38;;;1.50;;
25938;SDS011;13739;51.172;4.466;2022-08-21T06:37:53;5.95;;;1.65;;
25938;SDS011;13739;51.172;4.466;2022-08-21T06:40:20;8.10;;;1.85;;
25938;SDS011;13739;51.172;4.466;2022-08-21T06:42:46;4.15;;;1.60;;
25938;SDS011;13739;51.172;4.466;2022-08-21T06:45:12;5.20;;;1.83;;
25938;SDS011;13739;51.172;4.466;2022-08-21T06:47:37;8.82;;;1.80;;
25938;SDS011;13739;51.172;4.466;2022-08-21T06:50:03;9.00;;;2.50;;
25938;SDS011;13739;51.172;4.466;2022-08-21T06:52:29;5.45;;;1.70;;
25938;SDS011;13739;51.172;4.466;2022-08-21T06:54:55;6.15;;;1.85;;
25938;SDS011;13739;51.172;4.466;2022-08-21T06:57:21;7.97;;;2.70;;
25938;SDS011;13739;51.172;4.466;2022-08-21T06:59:46;9.35;;;1.85;;
25938;SDS011;13739;51.172;4.466;2022-08-21T07:02:12;6.22;;;1.60;;
25938;SDS011;13739;51.172;4.466;2022-08-21T07:04:38;9.23;;;2.17;;
25938;SDS011;13739;51.172;4.466;2022-08-21T07:07:03;5.53;;;1.80;;
25938;SDS011;13739;51.172;4.466;2022-08-21T07:09:29;8.98;;;1.95;;
25938;SDS011;13739;51.172;4.466;2022-08-21T07:11:55;10.95;;;2.25;;
25938;SDS011;13739;51.172;4.466;2022-08-21T07:14:22;6.43;;;1.73;;
25938;SDS011;13739;51.172;4.466;2022-08-21T07:16:48;8.48;;;1.95;;
25938;SDS011;13739;51.172;4.466;2022-08-21T07:19:15;5.40;;;1.50;;
25938;SDS011;13739;51.172;4.466;2022-08-21T07:21:41;6.53;;;1.60;;
25938;SDS011;13739;51.172;4.466;2022-08-21T07:24:06;8.13;;;1.67;;
25938;SDS011;13739;51.172;4.466;2022-08-21T07:26:32;14.07;;;1.75;;
25938;SDS011;13739;51.172;4.466;2022-08-21T07:28:58;11.60;;;1.85;;
25938;SDS011;13739;51.172;4.466;2022-08-21T07:31:24;7.60;;;1.90;;
25938;SDS011;13739;51.172;4.466;2022-08-21T07:33:51;6.35;;;1.73;;
25938;SDS011;13739;51.172;4.466;2022-08-21T07:36:16;6.13;;;1.52;;
25938;SDS011;13739;51.172;4.466;2022-08-21T07:38:42;8.05;;;1.67;;
25938;SDS011;13739;51.172;4.466;2022-08-21T07:41:12;9.35;;;2.00;;
25938;SDS011;13739;51.172;4.466;2022-08-21T07:43:43;5.82;;;1.65;;
25938;SDS011;13739;51.172;4.466;2022-08-21T07:46:09;7.13;;;1.48;;
25938;SDS011;13739;51.172;4.466;2022-08-21T07:48:35;8.55;;;1.48;;
25938;SDS011;13739;51.172;4.466;2022-08-21T07:51:02;7.03;;;1.70;;
25938;SDS011;13739;51.172;4.466;2022-08-21T07:53:31;7.18;;;1.85;;
25938;SDS011;13739;51.172;4.466;2022-08-21T07:55:57;6.88;;;1.50;;
25938;SDS011;13739;51.172;4.466;2022-08-21T07:58:23;5.32;;;1.75;;
25938;SDS011;13739;51.172;4.466;2022-08-21T08:00:48;6.43;;;1.67;;
25938;SDS011;13739;51.172;4.466;2022-08-21T08:03:14;7.32;;;1.73;;
25938;SDS011;13739;51.172;4.466;2022-08-21T08:05:40;3.47;;;1.05;;
25938;SDS011;13739;51.172;4.466;2022-08-21T08:08:05;5.60;;;1.50;;
25938;SDS011;13739;51.172;4.466;2022-08-21T08:10:31;12.35;;;1.75;;
25938;SDS011;13739;51.172;4.466;2022-08-21T08:12:58;4.13;;;1.48;;
25938;SDS011;13739;51.172;4.466;2022-08-21T08:15:25;6.35;;;1.80;;
25938;SDS011;13739;51.172;4.466;2022-08-21T08:17:52;3.67;;;1.08;;
25938;SDS011;13739;51.172;4.466;2022-08-21T08:20:19;5.05;;;1.10;;
25938;SDS011;13739;51.172;4.466;2022-08-21T08:22:46;8.18;;;1.27;;
25938;SDS011;13739;51.172;4.466;2022-08-21T08:25:13;4.60;;;1.17;;
25938;SDS011;13739;51.172;4.466;2022-08-21T08:27:40;6.55;;;1.38;;
25938;SDS011;13739;51.172;4.466;2022-08-21T08:30:06;3.03;;;1.20;;
25938;SDS011;13739;51.172;4.466;2022-08-21T08:32:34;6.40;;;1.40;;
25938;SDS011;13739;51.172;4.466;2022-08-21T08:35:00;5.43;;;1.30;;
25938;SDS011;13739;51.172;4.466;2022-08-21T08:37:25;3.45;;;1.10;;
25938;SDS011;13739;51.172;4.466;2022-08-21T08:39:51;7.82;;;1.52;;
25938;SDS011;13739;51.172;4.466;2022-08-21T08:42:23;7.75;;;1.17;;
25938;SDS011;13739;51.172;4.466;2022-08-21T08:45:04;8.50;;;1.20;;
25938;SDS011;13739;51.172;4.466;2022-08-21T08:47:44;7.72;;;1.20;;
25938;SDS011;13739;51.172;4.466;2022-08-21T08:50:17;7.28;;;1.50;;
25938;SDS011;13739;51.172;4.466;2022-08-21T08:52:58;4.60;;;1.00;;
25938;SDS011;13739;51.172;4.466;2022-08-21T08:55:29;4.47;;;1.10;;
25938;SDS011;13739;51.172;4.466;2022-08-21T08:57:59;5.53;;;1.20;;
25938;SDS011;13739;51.172;4.466;2022-08-21T09:00:27;5.97;;;1.13;;
25938;SDS011;13739;51.172;4.466;2022-08-21T09:02:55;4.60;;;1.10;;
25938;SDS011;13739;51.172;4.466;2022-08-21T09:05:28;4.63;;;1.83;;
25938;SDS011;13739;51.172;4.466;2022-08-21T09:13:25;5.05;;;1.17;;
25938;SDS011;13739;51.172;4.466;2022-08-21T09:16:26;3.78;;;0.98;;
25938;SDS011;13739;51.172;4.466;2022-08-21T09:19:03;4.95;;;1.10;;
25938;SDS011;13739;51.172;4.466;2022-08-21T09:21:43;5.63;;;1.55;;
25938;SDS011;13739;51.172;4.466;2022-08-21T09:29:37;5.10;;;1.40;;
25938;SDS011;13739;51.172;4.466;2022-08-21T09:32:10;5.05;;;1.30;;
25938;SDS011;13739;51.172;4.466;2022-08-21T09:34:57;11.60;;;1.27;;
25938;SDS011;13739;51.172;4.466;2022-08-21T09:37:23;4.22;;;1.15;;
25938;SDS011;13739;51.172;4.466;2022-08-21T09:39:50;6.68;;;1.52;;
25938;SDS011;13739;51.172;4.466;2022-08-21T09:42:23;3.70;;;1.20;;
25938;SDS011;13739;51.172;4.466;2022-08-21T09:45:04;10.15;;;1.40;;
25938;SDS011;13739;51.172;4.466;2022-08-21T09:47:40;7.47;;;1.30;;
25938;SDS011;13739;51.172;4.466;2022-08-21T09:50:39;4.47;;;0.82;;
25938;SDS011;13739;51.172;4.466;2022-08-21T09:52:58;4.68;;;1.42;;
25938;SDS011;13739;51.172;4.466;2022-08-21T09:58:10;4.88;;;1.00;;
25938;SDS011;13739;51.172;4.466;2022-08-21T10:00:36;6.80;;;1.15;;
25938;SDS011;13739;51.172;4.466;2022-08-21T10:03:09;5.80;;;1.40;;
25938;SDS011;13739;51.172;4.466;2022-08-21T10:05:36;3.70;;;1.23;;
25938;SDS011;13739;51.172;4.466;2022-08-21T10:08:03;4.82;;;1.20;;
25938;SDS011;13739;51.172;4.466;2022-08-21T10:10:31;5.13;;;1.27;;
25938;SDS011;13739;51.172;4.466;2022-08-21T10:21:17;6.30;;;1.58;;
25938;SDS011;13739;51.172;4.466;2022-08-21T10:26:20;7.18;;;1.20;;
25938;SDS011;13739;51.172;4.466;2022-08-21T10:28:53;8.27;;;1.80;;
25938;SDS011;13739;51.172;4.466;2022-08-21T10:31:34;4.57;;;1.35;;
25938;SDS011;13739;51.172;4.466;2022-08-21T10:40:24;8.85;;;1.50;;
25938;SDS011;13739;51.172;4.466;2022-08-21T10:46:05;7.47;;;1.60;;
25938;SDS011;13739;51.172;4.466;2022-08-21T10:48:50;8.50;;;1.45;;
25938;SDS011;13739;51.172;4.466;2022-08-21T10:56:38;7.88;;;1.35;;
25938;SDS011;13739;51.172;4.466;2022-08-21T11:04:28;5.72;;;1.50;;
25938;SDS011;13739;51.172;4.466;2022-08-21T11:07:12;4.53;;;1.63;;
25938;SDS011;13739;51.172;4.466;2022-08-21T11:09:46;5.93;;;1.35;;
25938;SDS011;13739;51.172;4.466;2022-08-21T11:14:56;6.82;;;1.40;;
25938;SDS011;13739;51.172;4.466;2022-08-21T11:17:55;5.22;;;1.50;;
25938;SDS011;13739;51.172;4.466;2022-08-21T11:20:31;7.78;;;1.30;;
25938;SDS011;13739;51.172;4.466;2022-08-21T11:23:07;4.25;;;1.33;;
25938;SDS011;13739;51.172;4.466;2022-08-21T11:26:02;3.03;;;1.02;;
25938;SDS011;13739;51.172;4.466;2022-08-21T11:28:48;6.25;;;1.10;;
25938;SDS011;13739;51.172;4.466;2022-08-21T11:31:32;6.78;;;1.58;;
25938;SDS011;13739;51.172;4.466;2022-08-21T11:40:10;4.95;;;1.30;;
25938;SDS011;13739;51.172;4.466;2022-08-21T11:50:48;7.40;;;2.30;;
25938;SDS011;13739;51.172;4.466;2022-08-21T11:58:19;11.15;;;1.50;;
25938;SDS011;13739;51.172;4.466;2022-08-21T12:03:26;6.05;;;1.30;;
25938;SDS011;13739;51.172;4.466;2022-08-21T12:06:09;6.57;;;1.40;;
25938;SDS011;13739;51.172;4.466;2022-08-21T12:08:38;9.57;;;1.80;;
25938;SDS011;13739;51.172;4.466;2022-08-21T12:11:20;5.55;;;1.50;;
25938;SDS011;13739;51.172;4.466;2022-08-21T12:16:31;5.90;;;1.25;;
25938;SDS011;13739;51.172;4.466;2022-08-21T12:19:09;4.53;;;1.10;;
25938;SDS011;13739;51.172;4.466;2022-08-21T12:21:54;4.95;;;1.35;;
25938;SDS011;13739;51.172;4.466;2022-08-21T12:24:45;7.68;;;1.40;;
25938;SDS011;13739;51.172;4.466;2022-08-21T12:27:17;6.13;;;1.55;;
25938;SDS011;13739;51.172;4.466;2022-08-21T12:29:51;7.68;;;1.33;;
25938;SDS011;13739;51.172;4.466;2022-08-21T12:32:23;6.70;;;1.40;;
25938;SDS011;13739;51.172;4.466;2022-08-21T12:35:27;9.07;;;1.58;;
25938;SDS011;13739;51.172;4.466;2022-08-21T12:43:11;3.47;;;1.08;;
25938;SDS011;13739;51.172;4.466;2022-08-21T12:45:43;11.93;;;2.17;;
25938;SDS011;13739;51.172;4.466;2022-08-21T12:48:22;8.32;;;1.20;;
25938;SDS011;13739;51.172;4.466;2022-08-21T12:51:17;5.72;;;1.77;;
25938;SDS011;13739;51.172;4.466;2022-08-21T12:54:37;7.43;;;1.45;;
25938;SDS011;13739;51.172;4.466;2022-08-21T12:57:05;7.13;;;1.52;;
25938;SDS011;13739;51.172;4.466;2022-08-21T12:59:32;6.18;;;1.10;;
25938;SDS011;13739;51.172;4.466;2022-08-21T13:02:03;4.78;;;1.33;;
25938;SDS011;13739;51.172;4.466;2022-08-21T13:04:41;6.03;;;1.40;;
25938;SDS011;13739;51.172;4.466;2022-08-21T13:07:09;4.30;;;1.10;;
25938;SDS011;13739;51.172;4.466;2022-08-21T13:09:47;3.65;;;1.38;;
25938;SDS011;13739;51.172;4.466;2022-08-21T13:12:16;3.92;;;1.33;;
25938;SDS011;13739;51.172;4.466;2022-08-21T13:14:45;4.25;;;1.30;;
25938;SDS011;13739;51.172;4.466;2022-08-21T13:17:16;4.07;;;1.02;;
25938;SDS011;13739;51.172;4.466;2022-08-21T13:19:57;4.07;;;1.30;;
25938;SDS011;13739;51.172;4.466;2022-08-21T13:22:26;6.18;;;1.90;;
25938;SDS011;13739;51.172;4.466;2022-08-21T13:24:52;4.60;;;1.00;;
25938;SDS011;13739;51.172;4.466;2022-08-21T13:27:20;7.53;;;1.20;;
25938;SDS011;13739;51.172;4.466;2022-08-21T13:30:01;9.05;;;1.50;;
25938;SDS011;13739;51.172;4.466;2022-08-21T13:32:34;8.73;;;1.70;;
25938;SDS011;13739;51.172;4.466;2022-08-21T13:35:14;8.68;;;1.67;;
25938;SDS011;13739;51.172;4.466;2022-08-21T13:37:45;8.82;;;1.67;;
25938;SDS011;13739;51.172;4.466;2022-08-21T13:40:18;11.32;;;2.00;;
25938;SDS011;13739;51.172;4.466;2022-08-21T13:42:48;6.50;;;1.35;;
25938;SDS011;13739;51.172;4.466;2022-08-21T13:45:15;9.43;;;1.95;;
25938;SDS011;13739;51.172;4.466;2022-08-21T13:47:47;9.70;;;1.95;;
25938;SDS011;13739;51.172;4.466;2022-08-21T13:50:14;5.35;;;1.65;;
25938;SDS011;13739;51.172;4.466;2022-08-21T13:52:47;9.80;;;2.05;;
25938;SDS011;13739;51.172;4.466;2022-08-21T13:55:18;7.22;;;1.40;;
25938;SDS011;13739;51.172;4.466;2022-08-21T13:57:44;8.00;;;1.70;;
25938;SDS011;13739;51.172;4.466;2022-08-21T14:02:40;8.50;;;1.40;;
25938;SDS011;13739;51.172;4.466;2022-08-21T14:05:10;4.85;;;1.60;;
25938;SDS011;13739;51.172;4.466;2022-08-21T14:07:44;7.38;;;1.80;;
25938;SDS011;13739;51.172;4.466;2022-08-21T14:15:16;5.18;;;1.30;;
25938;SDS011;13739;51.172;4.466;2022-08-21T14:17:43;6.90;;;2.00;;
25938;SDS011;13739;51.172;4.466;2022-08-21T14:20:11;7.22;;;1.67;;
25938;SDS011;13739;51.172;4.466;2022-08-21T14:22:49;5.60;;;1.55;;
25938;SDS011;13739;51.172;4.466;2022-08-21T14:27:48;4.43;;;1.73;;
25938;SDS011;13739;51.172;4.466;2022-08-21T14:33:08;3.08;;;1.10;;
25938;SDS011;13739;51.172;4.466;2022-08-21T14:35:43;5.95;;;1.60;;
25938;SDS011;13739;51.172;4.466;2022-08-21T14:38:16;4.63;;;1.75;;
25938;SDS011;13739;51.172;4.466;2022-08-21T14:40:54;6.43;;;1.50;;
25938;SDS011;13739;51.172;4.466;2022-08-21T14:43:25;6.45;;;1.60;;
25938;SDS011;13739;51.172;4.466;2022-08-21T14:45:52;5.22;;;1.30;;
25938;SDS011;13739;51.172;4.466;2022-08-21T14:48:19;6.05;;;1.55;;
25938;SDS011;13739;51.172;4.466;2022-08-21T14:50:45;7.03;;;1.40;;
25938;SDS011;13739;51.172;4.466;2022-08-21T14:53:11;6.65;;;1.50;;
25938;SDS011;13739;51.172;4.466;2022-08-21T14:55:37;6.47;;;1.20;;
25938;SDS011;13739;51.172;4.466;2022-08-21T14:58:23;7.28;;;1.80;;
25938;SDS011;13739;51.172;4.466;2022-08-21T15:00:50;4.97;;;1.30;;
25938;SDS011;13739;51.172;4.466;2022-08-21T15:03:17;7.18;;;1.45;;
25938;SDS011;13739;51.172;4.466;2022-08-21T15:05:44;4.55;;;1.10;;
25938;SDS011;13739;51.172;4.466;2022-08-21T15:08:09;3.40;;;1.20;;
25938;SDS011;13739;51.172;4.466;2022-08-21T15:10:35;6.38;;;1.10;;
25938;SDS011;13739;51.172;4.466;2022-08-21T15:13:02;6.55;;;1.48;;
25938;SDS011;13739;51.172;4.466;2022-08-21T15:15:32;4.70;;;1.50;;
25938;SDS011;13739;51.172;4.466;2022-08-21T15:18:03;10.73;;;2.20;;
25938;SDS011;13739;51.172;4.466;2022-08-21T15:20:29;6.35;;;1.55;;
25938;SDS011;13739;51.172;4.466;2022-08-21T15:22:55;3.28;;;1.15;;
25938;SDS011;13739;51.172;4.466;2022-08-21T15:25:21;5.45;;;1.20;;
25938;SDS011;13739;51.172;4.466;2022-08-21T15:27:48;4.38;;;1.52;;
25938;SDS011;13739;51.172;4.466;2022-08-21T15:30:14;5.53;;;1.38;;
25938;SDS011;13739;51.172;4.466;2022-08-21T15:32:40;6.90;;;1.20;;
25938;SDS011;13739;51.172;4.466;2022-08-21T15:35:06;5.90;;;1.35;;
25938;SDS011;13739;51.172;4.466;2022-08-21T15:37:34;4.50;;;1.45;;
25938;SDS011;13739;51.172;4.466;2022-08-21T15:40:00;4.50;;;1.40;;
25938;SDS011;13739;51.172;4.466;2022-08-21T15:42:26;5.40;;;1.60;;
25938;SDS011;13739;51.172;4.466;2022-08-21T15:44:53;5.13;;;1.50;;
25938;SDS011;13739;51.172;4.466;2022-08-21T15:47:30;3.92;;;1.48;;
25938;SDS011;13739;51.172;4.466;2022-08-21T15:49:59;4.15;;;1.35;;
25938;SDS011;13739;51.172;4.466;2022-08-21T15:52:24;6.60;;;1.45;;
25938;SDS011;13739;51.172;4.466;2022-08-21T15:54:50;6.82;;;1.60;;
25938;SDS011;13739;51.172;4.466;2022-08-21T15:57:18;5.90;;;1.08;;
25938;SDS011;13739;51.172;4.466;2022-08-21T15:59:47;8.48;;;1.70;;
25938;SDS011;13739;51.172;4.466;2022-08-21T16:02:17;6.25;;;1.40;;
25938;SDS011;13739;51.172;4.466;2022-08-21T16:04:47;9.55;;;1.80;;
25938;SDS011;13739;51.172;4.466;2022-08-21T16:07:13;8.50;;;1.45;;
25938;SDS011;13739;51.172;4.466;2022-08-21T16:09:39;7.63;;;1.88;;
25938;SDS011;13739;51.172;4.466;2022-08-21T16:12:05;4.65;;;1.30;;
25938;SDS011;13739;51.172;4.466;2022-08-21T16:14:32;4.22;;;1.13;;
25938;SDS011;13739;51.172;4.466;2022-08-21T16:17:01;9.10;;;1.35;;
25938;SDS011;13739;51.172;4.466;2022-08-21T16:19:29;4.28;;;1.45;;
25938;SDS011;13739;51.172;4.466;2022-08-21T16:21:56;5.88;;;1.55;;
25938;SDS011;13739;51.172;4.466;2022-08-21T16:24:22;5.30;;;1.30;;
25938;SDS011;13739;51.172;4.466;2022-08-21T16:26:48;5.43;;;1.50;;
25938;SDS011;13739;51.172;4.466;2022-08-21T16:29:14;7.00;;;1.27;;
25938;SDS011;13739;51.172;4.466;2022-08-21T16:31:40;4.03;;;1.45;;
25938;SDS011;13739;51.172;4.466;2022-08-21T16:34:06;6.05;;;1.50;;